Home

Weather

KSLC Current Conditions

KSLC 210554Z 14005KT 10SM FEW040 SCT070 SCT120 M03/M08 A2964 RMK AO2 SLP055 60000 T10331083 11006 21033 55003

KSLC Aviation Forecast

TAF KSLC 210546Z 2106/2212 16005KT P6SM SCT060 BKN100 FM211900 01012KT P6SM SCT110 FM220200 35006KT P6SM FEW110


Wind Advisory

Issued:
10:22 PM MST on February 20, 2019
Expires:
3:00 AM MST on February 22, 2019
26° F
Scattered Clouds
Scattered Clouds

Mostly Cloudy
Wednesday
Mostly Cloudy
High 33°/Low 20°
20%
Mostly Cloudy
Thursday
Mostly Cloudy
High 32°/Low 17°
20%
Clear
Friday
Clear
High 30°/Low 16°
0%
Clear
Saturday
Clear
High 36°/Low 23°
0%
Clear
Sunday
Clear
High 41°/Low 31°
0%
Snow
Monday
Snow
High 45°/Low 36°
40%